createdAt,value
2022-09-06T00:00:31.987Z,25.5714
2022-09-06T00:01:32.058Z,25.6429
2022-09-06T00:02:32.166Z,25.5714
2022-09-06T00:03:32.272Z,25.6429
2022-09-06T00:04:32.253Z,25.7143
2022-09-06T00:05:32.216Z,25.5714
2022-09-06T00:06:32.260Z,25.5714
2022-09-06T00:07:32.310Z,25.5714
2022-09-06T00:08:32.374Z,25.4286
2022-09-06T00:09:32.398Z,25.4286
2022-09-06T00:10:32.442Z,25.5
2022-09-06T00:11:32.484Z,25.4286
2022-09-06T00:12:32.549Z,25.5
2022-09-06T00:13:32.595Z,25.2857
2022-09-06T00:14:32.618Z,25.5
2022-09-06T00:15:32.721Z,25.5
2022-09-06T00:16:32.752Z,25.5714
2022-09-06T00:17:32.746Z,25.6429
2022-09-06T00:18:32.814Z,25.6429
2022-09-06T00:19:32.853Z,25.5714
2022-09-06T00:20:32.876Z,25.6429
2022-09-06T00:21:32.916Z,25.7143
2022-09-06T00:22:32.954Z,25.6429
2022-09-06T00:23:33.015Z,25.6429
2022-09-06T00:24:33.038Z,25.6429
2022-09-06T00:25:33.087Z,25.7143
2022-09-06T00:26:33.127Z,25.5714
2022-09-06T00:27:33.164Z,25.6429
2022-09-06T00:28:33.227Z,25.7143
2022-09-06T00:29:33.251Z,25.6429
2022-09-06T00:30:33.292Z,25.6429
2022-09-06T00:31:33.409Z,25.5714
2022-09-06T00:32:33.384Z,25.6429
2022-09-06T00:33:33.412Z,25.6429
2022-09-06T00:34:33.456Z,25.6429
2022-09-06T00:35:33.522Z,25.5714
2022-09-06T00:36:33.545Z,25.5714
2022-09-06T00:37:33.588Z,25.5714
2022-09-06T00:38:33.633Z,25.4286
2022-09-06T00:39:33.751Z,25.2857
2022-09-06T00:40:33.737Z,25.3571
2022-09-06T00:41:33.760Z,25.2857
2022-09-06T00:42:33.809Z,25.2857
2022-09-06T00:43:33.846Z,25.2143
2022-09-06T00:44:33.893Z,25.2857
2022-09-06T00:45:33.956Z,25.2143
2022-09-06T00:46:34.066Z,25.2143
2022-09-06T00:47:34.043Z,25.2857
2022-09-06T00:48:34.065Z,25.2857
2022-09-06T00:49:34.103Z,25.3571
2022-09-06T00:50:34.149Z,25.2857
2022-09-06T00:51:34.190Z,25.2857
2022-09-06T00:52:34.255Z,25.2857
2022-09-06T00:53:34.276Z,25.2143
2022-09-06T00:54:34.325Z,25.2143
2022-09-06T00:55:34.387Z,25.3571
2022-09-06T00:56:34.430Z,25.2857
2022-09-06T00:57:34.463Z,25.3571
2022-09-06T00:58:34.504Z,25.3571
2022-09-06T00:59:34.547Z,25.2143
2022-09-06T01:00:34.588Z,25.2143
2022-09-06T01:01:34.758Z,25.1429
2022-09-06T01:02:34.773Z,25.1429
2022-09-06T01:03:34.716Z,25.0714
2022-09-06T01:04:34.784Z,25.0714
2022-09-06T01:05:34.799Z,25
2022-09-06T01:06:34.875Z,25.0714
2022-09-06T01:07:34.884Z,25.0714
2022-09-06T01:08:34.933Z,25
2022-09-06T01:09:34.978Z,25.0714
2022-09-06T01:10:35.022Z,25.0714
2022-09-06T01:11:35.092Z,25.0714
2022-09-06T01:12:35.103Z,25
2022-09-06T01:13:35.143Z,24.9286
2022-09-06T01:14:35.189Z,24.9286
2022-09-06T01:15:35.350Z,24.8571
2022-09-06T01:16:35.279Z,24.8571
2022-09-06T01:17:35.318Z,24.8571
2022-09-06T01:18:35.395Z,24.8571
2022-09-06T01:19:35.398Z,24.7857
2022-09-06T01:20:35.443Z,24.7857
2022-09-06T01:21:35.493Z,24.8571
2022-09-06T01:22:35.544Z,24.8571
2022-09-06T01:23:35.603Z,24.9286
2022-09-06T01:24:35.625Z,25
2022-09-06T01:25:35.692Z,24.9286
2022-09-06T01:26:35.710Z,24.8571
2022-09-06T01:27:35.750Z,25
2022-09-06T01:28:35.795Z,25
2022-09-06T01:29:35.861Z,25
2022-09-06T01:30:35.949Z,25
2022-09-06T01:31:35.931Z,25.0714
2022-09-06T01:32:35.980Z,25.0714
2022-09-06T01:33:36.048Z,25
2022-09-06T01:34:36.089Z,25
2022-09-06T01:35:36.115Z,25
2022-09-06T01:36:42.486Z,25
2022-09-06T01:37:36.203Z,24.9286
2022-09-06T01:38:36.268Z,24.9286
2022-09-06T01:39:36.397Z,25
2022-09-06T01:40:36.346Z,24.8571
2022-09-06T01:41:36.374Z,24.7857
2022-09-06T01:42:36.441Z,24.7143
2022-09-06T01:43:36.456Z,24.7143
2022-09-06T01:44:36.498Z,24.5714
2022-09-06T01:45:36.547Z,24.5714
2022-09-06T01:46:36.662Z,24.5714
2022-09-06T01:47:36.654Z,24.5
2022-09-06T01:48:36.668Z,24.5
2022-09-06T01:49:36.713Z,24.5
2022-09-06T01:50:36.759Z,24.5
2022-09-06T01:51:36.802Z,24.5714
2022-09-06T01:52:36.883Z,24.5
2022-09-06T01:53:36.883Z,24.5714
2022-09-06T01:54:36.916Z,24.5
2022-09-06T01:55:36.958Z,24.4286
2022-09-06T01:56:37.002Z,24.4286
2022-09-06T01:57:37.094Z,24.4286
2022-09-06T01:58:37.096Z,24.3571
2022-09-06T01:59:37.132Z,24.3571
2022-09-06T02:00:37.177Z,24.2857
2022-09-06T02:01:37.245Z,24.3571
2022-09-06T02:02:37.368Z,24.3571
2022-09-06T02:03:37.309Z,24.3571
2022-09-06T02:04:37.349Z,24.3571
2022-09-06T02:05:37.394Z,24.3571
2022-09-06T02:06:37.434Z,24.3571
2022-09-06T02:07:37.512Z,24.2857
2022-09-06T02:08:37.523Z,24.2857
2022-09-06T02:09:37.573Z,24.4286
2022-09-06T02:10:37.619Z,24.3571
2022-09-06T02:11:37.663Z,24.4286
2022-09-06T02:12:37.730Z,24.4286
2022-09-06T02:13:37.749Z,24.2857
2022-09-06T02:14:37.791Z,24.2857
2022-09-06T02:15:37.855Z,24.2143
2022-09-06T02:16:37.933Z,24.3571
2022-09-06T02:17:37.919Z,24.2857
2022-09-06T02:18:37.963Z,24.2143
2022-09-06T02:19:38.035Z,24.2143
2022-09-06T02:20:38.058Z,24.2143
2022-09-06T02:21:38.103Z,24.2857
2022-09-06T02:22:38.136Z,24.3571
2022-09-06T02:23:38.212Z,24.3571
2022-09-06T02:24:38.232Z,24.2857
2022-09-06T02:25:38.270Z,24.2857
2022-09-06T02:26:38.316Z,24.2857
2022-09-06T02:27:38.356Z,24.2143
2022-09-06T02:28:38.422Z,24.1429
2022-09-06T02:29:38.473Z,24.1429
2022-09-06T02:30:38.557Z,24.1429
2022-09-06T02:31:38.525Z,24.1429
2022-09-06T02:32:38.563Z,24.2143
2022-09-06T02:33:38.613Z,24.2143
2022-09-06T02:34:38.669Z,24.2857
2022-09-06T02:35:38.717Z,24.2857
2022-09-06T02:36:38.766Z,24.3571
2022-09-06T02:37:38.781Z,24.4286
2022-09-06T02:38:38.823Z,24.3571
2022-09-06T02:39:38.927Z,24.4286
2022-09-06T02:40:38.905Z,24.3571
2022-09-06T02:41:38.966Z,24.4286
2022-09-06T02:42:39.017Z,24.4286
2022-09-06T02:43:39.035Z,24.3571
2022-09-06T02:44:39.116Z,24.4286
2022-09-06T02:45:39.188Z,24.4286
2022-09-06T02:46:39.163Z,24.4286
2022-09-06T02:47:39.206Z,24.4286
2022-09-06T02:48:39.248Z,24.4286
2022-09-06T02:49:39.315Z,24.4286
2022-09-06T02:50:39.344Z,24.4286
2022-09-06T02:51:39.383Z,24.4286
2022-09-06T02:52:39.443Z,24.4286
2022-09-06T02:53:39.469Z,24.2857
2022-09-06T02:54:39.532Z,24.2143
2022-09-06T02:55:39.557Z,24.1429
2022-09-06T02:56:39.597Z,24.0714
2022-09-06T02:57:39.648Z,24.0714
2022-09-06T02:58:39.691Z,24.1429
2022-09-06T02:59:39.756Z,24
2022-09-06T03:00:39.780Z,24.0714
2022-09-06T03:01:39.940Z,24.0714
2022-09-06T03:02:40.035Z,24.0714
2022-09-06T03:03:39.911Z,24.1429
2022-09-06T03:04:39.951Z,24.2143
2022-09-06T03:05:40.002Z,24.1429
2022-09-06T03:06:40.066Z,24.2857
2022-09-06T03:07:40.121Z,24.2143
2022-09-06T03:08:40.129Z,24.0714
2022-09-06T03:09:40.175Z,24.1429
2022-09-06T03:10:40.224Z,24.1429
2022-09-06T03:11:40.262Z,24.1429
2022-09-06T03:12:40.336Z,24.1429
2022-09-06T03:13:40.425Z,24.2143
2022-09-06T03:14:40.391Z,24.2143
2022-09-06T03:15:40.436Z,24.2143
2022-09-06T03:16:40.568Z,24.2143
2022-09-06T03:17:40.528Z,24.2143
2022-09-06T03:18:40.609Z,24.2143
2022-09-06T03:19:40.617Z,24.2143
2022-09-06T03:20:40.653Z,24.1429
2022-09-06T03:21:40.694Z,24.2143
2022-09-06T03:22:40.739Z,24.1429
2022-09-06T03:23:40.824Z,24.2143
2022-09-06T03:24:40.828Z,24.1429
2022-09-06T03:25:40.877Z,24.1429
2022-09-06T03:26:40.921Z,24.1429
2022-09-06T03:27:40.974Z,24.1429
2022-09-06T03:28:41.027Z,24.1429
2022-09-06T03:29:41.049Z,24.0714
2022-09-06T03:30:41.147Z,24.0714
2022-09-06T03:31:41.152Z,24.0714
2022-09-06T03:32:41.176Z,24.0714
2022-09-06T03:33:41.220Z,24.1429
2022-09-06T03:34:41.249Z,24
2022-09-06T03:35:41.295Z,23.9286
2022-09-06T03:36:41.371Z,24.0714
2022-09-06T03:37:41.385Z,24
2022-09-06T03:38:41.426Z,24.1429
2022-09-06T03:39:41.507Z,24.0714
2022-09-06T03:40:41.539Z,24.1429
2022-09-06T03:41:41.557Z,24.0714
2022-09-06T03:42:41.603Z,24.0714
2022-09-06T03:43:41.648Z,24.1429
2022-09-06T03:44:41.689Z,24
2022-09-06T03:45:41.821Z,24
2022-09-06T03:46:41.781Z,24
2022-09-06T03:47:41.824Z,24
2022-09-06T03:48:41.871Z,24
2022-09-06T03:49:41.912Z,24.0714
2022-09-06T03:50:41.973Z,24.0714
2022-09-06T03:51:41.990Z,24.0714
2022-09-06T03:52:42.031Z,24.0714
2022-09-06T03:53:42.075Z,24
2022-09-06T03:54:42.120Z,24.0714
2022-09-06T03:55:42.185Z,24.0714
2022-09-06T03:56:42.202Z,24
2022-09-06T03:57:42.250Z,24
2022-09-06T03:58:42.311Z,24
2022-09-06T03:59:42.334Z,24
2022-09-06T04:00:42.397Z,24.0714
2022-09-06T04:01:42.456Z,24.0714
2022-09-06T04:02:42.508Z,24
2022-09-06T04:03:42.521Z,24
2022-09-06T04:04:42.545Z,24
2022-09-06T04:05:42.585Z,23.9286
2022-09-06T04:06:42.634Z,23.9286
2022-09-06T04:07:42.674Z,23.9286
2022-09-06T04:08:42.733Z,23.8571
2022-09-06T04:09:42.788Z,23.9286
2022-09-06T04:10:42.801Z,23.9286
2022-09-06T04:11:45.038Z,23.8571
2022-09-06T04:12:42.908Z,24
2022-09-06T04:13:42.926Z,23.8571
2022-09-06T04:14:42.968Z,23.9286
2022-09-06T04:15:43.012Z,24
2022-09-06T04:16:43.086Z,23.8571
2022-09-06T04:17:43.120Z,23.7857
2022-09-06T04:18:43.133Z,23.8571
2022-09-06T04:19:43.176Z,23.9286
2022-09-06T04:20:43.217Z,23.8571
2022-09-06T04:21:43.261Z,23.8571
2022-09-06T04:22:43.331Z,23.8571
2022-09-06T04:23:43.351Z,23.9286
2022-09-06T04:24:43.415Z,23.8571
2022-09-06T04:25:43.439Z,23.8571
2022-09-06T04:26:43.479Z,23.8571
2022-09-06T04:27:43.541Z,23.7857
2022-09-06T04:28:43.568Z,23.6429
2022-09-06T04:29:43.605Z,23.6429
2022-09-06T04:30:43.658Z,23.7857
2022-09-06T04:31:43.766Z,23.8571
2022-09-06T04:32:43.725Z,23.8571
2022-09-06T04:33:43.772Z,23.8571
2022-09-06T04:34:43.818Z,23.8571
2022-09-06T04:35:43.889Z,23.8571
2022-09-06T04:36:48.152Z,23.8571
2022-09-06T04:37:43.943Z,23.8571
2022-09-06T04:38:44.011Z,23.7857
2022-09-06T04:39:44.059Z,23.7857
2022-09-06T04:40:44.067Z,23.8571
2022-09-06T04:41:44.101Z,23.8571
2022-09-06T04:42:44.138Z,23.6429
2022-09-06T04:43:44.204Z,23.6429
2022-09-06T04:44:44.218Z,23.6429
2022-09-06T04:45:44.308Z,23.7143
2022-09-06T04:46:44.298Z,23.7143
2022-09-06T04:47:44.348Z,23.7143
2022-09-06T04:48:44.421Z,23.7857
2022-09-06T04:49:44.431Z,23.7143
2022-09-06T04:50:44.473Z,23.7857
2022-09-06T04:51:44.514Z,23.7857
2022-09-06T04:52:44.559Z,23.7857
2022-09-06T04:53:44.622Z,23.7857
2022-09-06T04:54:44.643Z,23.7857
2022-09-06T04:55:44.688Z,23.7857
2022-09-06T04:56:44.729Z,23.7857
2022-09-06T04:57:47.474Z,23.7143
2022-09-06T04:58:44.836Z,23.7143
2022-09-06T04:59:44.887Z,23.7857
2022-09-06T05:00:44.973Z,23.6429
2022-09-06T05:01:44.974Z,23.7143
2022-09-06T05:02:45.123Z,23.7857
2022-09-06T05:03:45.032Z,23.7143
2022-09-06T05:04:45.075Z,23.6429
2022-09-06T05:05:45.115Z,23.7143
2022-09-06T05:06:45.182Z,23.6429
2022-09-06T05:07:45.232Z,23.7143
2022-09-06T05:08:45.246Z,23.7143
2022-09-06T05:09:45.293Z,23.7143
2022-09-06T05:10:45.334Z,23.7143
2022-09-06T05:11:45.374Z,23.7143
2022-09-06T05:12:45.446Z,23.7143
2022-09-06T05:13:45.464Z,23.7143
2022-09-06T05:14:45.500Z,23.7143
2022-09-06T05:15:45.545Z,23.7143
2022-09-06T05:16:45.673Z,23.7143
2022-09-06T05:17:45.657Z,23.7143
2022-09-06T05:18:45.673Z,23.6429
2022-09-06T05:19:45.736Z,23.7143
2022-09-06T05:20:45.759Z,23.7143
2022-09-06T05:21:45.827Z,23.6429
2022-09-06T05:22:45.853Z,23.7143
2022-09-06T05:23:45.888Z,23.7143
2022-09-06T05:24:45.933Z,23.7143
2022-09-06T05:25:45.995Z,23.7143
2022-09-06T05:26:46.028Z,23.6429
2022-09-06T05:27:46.075Z,23.6429
2022-09-06T05:28:46.122Z,23.7143
2022-09-06T05:29:46.161Z,23.7143
2022-09-06T05:30:46.231Z,23.7143
2022-09-06T05:31:46.301Z,23.7143
2022-09-06T05:32:46.315Z,23.6429
2022-09-06T05:33:46.329Z,23.6429
2022-09-06T05:34:46.370Z,23.6429
2022-09-06T05:35:46.440Z,23.6429
2022-09-06T05:36:46.459Z,23.5714
2022-09-06T05:37:46.506Z,23.5714
2022-09-06T05:38:46.544Z,23.6429
2022-09-06T05:39:46.668Z,23.5714
2022-09-06T05:40:46.621Z,23.5
2022-09-06T05:41:46.667Z,23.3571
2022-09-06T05:42:46.709Z,23.4286
2022-09-06T05:43:46.751Z,23.5
2022-09-06T05:44:46.810Z,23.5
2022-09-06T05:45:46.891Z,23.5714
2022-09-06T05:46:46.874Z,23.5714
2022-09-06T05:47:46.913Z,23.5714
2022-09-06T05:48:46.960Z,23.5714
2022-09-06T05:49:47.020Z,23.5714
2022-09-06T05:50:47.048Z,23.5
2022-09-06T05:51:47.091Z,23.5
2022-09-06T05:52:47.181Z,23.4286
2022-09-06T05:53:47.181Z,23.4286
2022-09-06T05:54:47.228Z,23.3571
2022-09-06T05:55:47.273Z,23.2857
2022-09-06T05:56:47.322Z,23.3571
2022-09-06T05:57:47.385Z,23.3571
2022-09-06T05:58:47.406Z,23.4286
2022-09-06T05:59:47.447Z,23.3571
2022-09-06T06:00:47.535Z,23.3571
2022-09-06T06:01:47.561Z,23.5
2022-09-06T06:02:47.656Z,23.5
2022-09-06T06:03:47.622Z,23.5
2022-09-06T06:04:47.664Z,23.5
2022-09-06T06:05:47.709Z,23.5
2022-09-06T06:06:47.754Z,23.5
2022-09-06T06:07:47.814Z,23.5
2022-09-06T06:08:47.847Z,23.5
2022-09-06T06:09:47.891Z,23.5
2022-09-06T06:10:47.948Z,23.5
2022-09-06T06:11:47.970Z,23.5
2022-09-06T06:12:48.016Z,23.5
2022-09-06T06:13:48.051Z,23.5
2022-09-06T06:14:48.098Z,23.4286
2022-09-06T06:15:48.160Z,23.4286
2022-09-06T06:16:48.236Z,23.4286
2022-09-06T06:17:48.227Z,23.2857
2022-09-06T06:18:51.990Z,23.3571
2022-09-06T06:19:48.321Z,23.3571
2022-09-06T06:20:48.384Z,23.3571
2022-09-06T06:21:48.417Z,23.4286
2022-09-06T06:22:48.456Z,23.3571
2022-09-06T06:23:48.501Z,23.4286
2022-09-06T06:24:48.558Z,23.2857
2022-09-06T06:25:48.576Z,23.1429
2022-09-06T06:26:48.686Z,23.3571
2022-09-06T06:27:48.662Z,23.3571
2022-09-06T06:28:48.709Z,23.2857
2022-09-06T06:29:48.751Z,23.2857
2022-09-06T06:30:48.788Z,23.2857
2022-09-06T06:31:48.923Z,23.3571
2022-09-06T06:32:48.872Z,23.3571
2022-09-06T06:33:48.911Z,23.2857
2022-09-06T06:34:48.952Z,23.2857
2022-09-06T06:35:48.991Z,23.4286
2022-09-06T06:36:49.076Z,23.3571
2022-09-06T06:37:49.087Z,23.2857
2022-09-06T06:38:49.125Z,23.2143
2022-09-06T06:39:49.258Z,23.0714
2022-09-06T06:40:49.207Z,23.1429
2022-09-06T06:41:49.267Z,23.2857
2022-09-06T06:42:49.291Z,23.2857
2022-09-06T06:43:49.333Z,23.3571
2022-09-06T06:44:49.417Z,23.3571
2022-09-06T06:45:49.453Z,23.2143
2022-09-06T06:46:49.455Z,23.2143
2022-09-06T06:47:49.494Z,23.2143
2022-09-06T06:48:54.132Z,23.2143
2022-09-06T06:49:49.596Z,23.2857
2022-09-06T06:50:49.619Z,23.1429
2022-09-06T06:51:49.705Z,23.2143
2022-09-06T06:52:49.697Z,23.2857
2022-09-06T06:53:49.733Z,23.2857
2022-09-06T06:54:49.770Z,23.2857
2022-09-06T06:55:49.815Z,23.2143
2022-09-06T06:56:49.868Z,23.2857
2022-09-06T06:57:49.889Z,23.2857
2022-09-06T06:58:49.934Z,23.2857
2022-09-06T06:59:49.978Z,23.2857
2022-09-06T07:00:50.188Z,23.2857
2022-09-06T07:01:50.201Z,23.2857
2022-09-06T07:02:50.096Z,23.2143
2022-09-06T07:03:50.139Z,23.2143
2022-09-06T07:04:50.178Z,23.2857
2022-09-06T07:06:13.166Z,23.2857
2022-09-06T07:07:50.304Z,23.2143
2022-09-06T07:08:50.341Z,23.2143
2022-09-06T07:10:50.427Z,23.2857
2022-09-06T07:11:50.461Z,23.2857
2022-09-06T07:12:50.509Z,23.2857
2022-09-06T07:13:50.558Z,23.2857
2022-09-06T07:14:50.611Z,23.2857
2022-09-06T07:15:50.651Z,23.2857
2022-09-06T07:16:50.715Z,23.3571
2022-09-06T07:17:50.721Z,23.3571
2022-09-06T07:18:50.799Z,23.3571
2022-09-06T07:20:14.768Z,23.3571
2022-09-06T07:21:50.886Z,23.3571
2022-09-06T07:22:50.957Z,23.3571
2022-09-06T07:24:06.996Z,23.2857
2022-09-06T07:24:51.030Z,23.2857
2022-09-06T07:25:51.053Z,23.2857
2022-09-06T07:27:51.143Z,23.2857
2022-09-06T07:28:51.161Z,23.3571
2022-09-06T07:29:51.203Z,23.3571
2022-09-06T07:30:51.275Z,23.3571
2022-09-06T07:32:12.151Z,23.3571
2022-09-06T07:32:51.341Z,23.3571
2022-09-06T07:33:55.159Z,23.4286
2022-09-06T07:34:51.443Z,23.3571
2022-09-06T07:35:51.481Z,23.2857
2022-09-06T07:36:51.505Z,23.3571
2022-09-06T07:37:51.546Z,23.2857
2022-09-06T07:38:51.587Z,23.2857
2022-09-06T07:39:51.710Z,23.2857
2022-09-06T07:40:51.697Z,23.2857
2022-09-06T07:41:51.711Z,23.2857
2022-09-06T07:42:51.756Z,23.3571
2022-09-06T07:43:51.790Z,23.3571
2022-09-06T07:44:51.834Z,23.3571
2022-09-06T07:45:51.890Z,23.4286
2022-09-06T07:46:52.686Z,23.3571
2022-09-06T07:47:59.210Z,23.3571
2022-09-06T07:48:52.029Z,23.3571
2022-09-06T07:50:54.609Z,23.3571
2022-09-06T07:51:52.117Z,23.3571
2022-09-06T07:53:09.599Z,23.4286
2022-09-06T07:53:57.863Z,23.4286
2022-09-06T07:54:52.234Z,23.4286
2022-09-06T07:55:52.276Z,23.4286
2022-09-06T07:56:52.322Z,23.5
2022-09-06T07:57:52.363Z,23.4286
2022-09-06T07:58:52.426Z,23.5
2022-09-06T07:59:52.455Z,23.4286
2022-09-06T08:00:52.530Z,23.4286
2022-09-06T08:01:52.559Z,23.5
2022-09-06T08:02:52.585Z,23.5
2022-09-06T08:03:52.656Z,23.5
2022-09-06T08:04:52.665Z,23.4286
2022-09-06T08:09:00.335Z,23.5
2022-09-06T08:09:52.868Z,23.5714
2022-09-06T08:10:52.905Z,23.5
2022-09-06T08:11:53.011Z,23.5714
2022-09-06T08:12:52.985Z,23.5714
2022-09-06T08:13:53.043Z,23.5714
2022-09-06T08:14:53.076Z,23.6429
2022-09-06T08:15:53.135Z,23.6429
2022-09-06T08:16:53.158Z,23.6429
2022-09-06T08:17:53.196Z,23.6429
2022-09-06T08:18:53.275Z,23.7143
2022-09-06T08:19:53.279Z,23.6429
2022-09-06T08:20:53.320Z,23.6429
2022-09-06T08:21:53.358Z,23.5714
2022-09-06T08:22:53.398Z,23.5714
2022-09-06T08:23:53.459Z,23.5714
2022-09-06T08:24:53.483Z,23.5714
2022-09-06T08:25:53.556Z,23.5714
2022-09-06T08:26:53.575Z,23.5714
2022-09-06T08:27:53.612Z,23.5714
2022-09-06T08:28:53.650Z,23.6429
2022-09-06T08:29:53.687Z,23.6429
2022-09-06T08:30:53.760Z,23.6429
2022-09-06T08:31:53.883Z,23.7143
2022-09-06T08:32:53.813Z,23.6429
2022-09-06T08:33:53.856Z,23.7857
2022-09-06T08:34:53.917Z,23.7143
2022-09-06T08:35:53.936Z,23.7857
2022-09-06T08:36:53.981Z,23.7857
2022-09-06T08:37:54.043Z,23.7857
2022-09-06T08:38:54.062Z,23.7857
2022-09-06T08:39:54.142Z,23.7143
2022-09-06T08:40:54.138Z,23.7143
2022-09-06T08:41:54.231Z,23.7143
2022-09-06T08:42:54.231Z,23.7143
2022-09-06T08:45:55.830Z,23.8571
2022-09-06T08:46:54.457Z,23.8571
2022-09-06T08:47:54.419Z,23.8571
2022-09-06T08:48:54.491Z,23.9286
2022-09-06T08:49:54.499Z,23.8571
2022-09-06T08:50:54.540Z,23.8571
2022-09-06T08:51:54.586Z,23.9286
2022-09-06T08:53:15.644Z,23.9286
2022-09-06T08:53:54.699Z,23.9286
2022-09-06T08:54:54.724Z,23.9286
2022-09-06T08:55:54.793Z,23.9286
2022-09-06T08:56:54.821Z,23.8571
2022-09-06T08:57:54.874Z,23.8571
2022-09-06T08:58:54.931Z,23.8571
2022-09-06T08:59:54.993Z,23.8571
2022-09-06T09:00:55.151Z,23.8571
2022-09-06T09:01:55.222Z,23.8571
2022-09-06T09:02:55.181Z,23.8571
2022-09-06T09:03:55.257Z,23.8571
2022-09-06T09:04:55.290Z,23.8571
2022-09-06T09:05:55.349Z,23.5
2022-09-06T09:06:55.412Z,23.4286
2022-09-06T09:07:55.433Z,23.5714
2022-09-06T09:08:55.497Z,23.6429
2022-09-06T09:09:55.509Z,23.7143
2022-09-06T09:10:55.554Z,24
2022-09-06T09:11:55.627Z,24.2143
2022-09-06T09:12:55.650Z,24.2857
2022-09-06T09:13:56.207Z,24.3571
2022-09-06T09:14:55.745Z,24.5
2022-09-06T09:15:55.876Z,24.5
2022-09-06T09:16:55.853Z,24.5714
2022-09-06T09:17:55.874Z,24.5714
2022-09-06T09:18:55.944Z,24.5714
2022-09-06T09:19:55.961Z,24.5
2022-09-06T09:20:56.024Z,24.5
2022-09-06T09:21:56.049Z,24.5
2022-09-06T09:22:56.090Z,24.4286
2022-09-06T09:23:56.160Z,24.4286
2022-09-06T09:24:56.174Z,24.3571
2022-09-06T09:25:56.216Z,24.3571
2022-09-06T09:26:56.279Z,24.3571
2022-09-06T09:27:56.302Z,24.2857
2022-09-06T09:28:56.372Z,24.2857
2022-09-06T09:30:56.510Z,24.2143
2022-09-06T09:31:56.652Z,24.2143
2022-09-06T09:32:56.538Z,24.2143
2022-09-06T09:33:56.561Z,24.2143
2022-09-06T09:34:56.604Z,24.2143
2022-09-06T09:35:56.647Z,24.2143
2022-09-06T09:37:59.390Z,24.2143
2022-09-06T09:38:56.801Z,24.2143
2022-09-06T09:39:56.938Z,24.2143
2022-09-06T09:40:56.893Z,24.2143
2022-09-06T09:41:56.916Z,24.2143
2022-09-06T09:42:56.961Z,24.2143
2022-09-06T09:44:00.044Z,24.2143
2022-09-06T09:44:57.091Z,24.2143
2022-09-06T09:45:57.105Z,24.2143
2022-09-06T09:46:57.210Z,24.1429
2022-09-06T09:47:57.198Z,24.1429
2022-09-06T09:48:57.248Z,24.1429
2022-09-06T09:49:57.299Z,24.2143
2022-09-06T09:50:57.323Z,24.2143
2022-09-06T09:51:57.370Z,24.2143
2022-09-06T09:52:57.412Z,24.2143
2022-09-06T09:53:57.478Z,24.2143
2022-09-06T09:54:57.545Z,24.2143
2022-09-06T09:55:57.549Z,24.2143
2022-09-06T09:56:57.594Z,24.2143
2022-09-06T09:57:57.641Z,24.2143
2022-09-06T09:58:57.683Z,24.2143
2022-09-06T09:59:57.749Z,24.2143
2022-09-06T10:00:57.817Z,24.2143
2022-09-06T10:01:57.841Z,24.2143
2022-09-06T10:02:57.923Z,24.2143
2022-09-06T10:04:57.955Z,24.1429
2022-09-06T10:06:02.393Z,24.0714
2022-09-06T10:07:10.675Z,24.1429
2022-09-06T10:07:58.093Z,24.1429
2022-09-06T10:08:58.133Z,24.0714
2022-09-06T10:09:58.179Z,24.1429
2022-09-06T10:10:58.243Z,24.1429
2022-09-06T10:11:58.300Z,24.1429
2022-09-06T10:12:58.346Z,24.1429
2022-09-06T10:13:58.362Z,24.2143
2022-09-06T10:15:00.211Z,24.2143
2022-09-06T10:15:58.530Z,24.2143
2022-09-06T10:16:58.488Z,24.2143
2022-09-06T10:17:58.531Z,24.2143
2022-09-06T10:18:58.597Z,24.2857
2022-09-06T10:19:58.618Z,24.2857
2022-09-06T10:20:58.664Z,24.2857
2022-09-06T10:21:58.724Z,24.2857
2022-09-06T10:22:58.752Z,24.3571
2022-09-06T10:24:26.293Z,24.3571
2022-09-06T10:24:58.843Z,24.3571
2022-09-06T10:25:58.889Z,24.4286
2022-09-06T10:26:58.952Z,24.4286
2022-09-06T10:28:10.934Z,24.4286
2022-09-06T10:28:59.026Z,24.4286
2022-09-06T10:29:59.097Z,24.5
2022-09-06T10:30:59.132Z,24.5
2022-09-06T10:31:59.163Z,24.5
2022-09-06T10:32:59.206Z,24.5714
2022-09-06T10:33:59.258Z,24.5714
2022-09-06T10:34:59.327Z,24.5714
2022-09-06T10:35:59.337Z,24.5714
2022-09-06T10:36:59.383Z,24.5714
2022-09-06T10:37:59.420Z,24.5714
2022-09-06T10:39:03.664Z,24.5714
2022-09-06T10:39:59.620Z,24.5714
2022-09-06T10:40:59.555Z,24.5714
2022-09-06T10:41:59.602Z,24.5714
2022-09-06T10:42:59.643Z,24.6429
2022-09-06T10:43:59.689Z,24.6429
2022-09-06T10:44:59.763Z,24.5714
2022-09-06T10:45:59.771Z,24.5714
2022-09-06T10:46:59.814Z,24.5714
2022-09-06T10:47:59.859Z,24.6429
2022-09-06T10:48:59.902Z,24.6429
2022-09-06T10:49:59.970Z,24.6429
2022-09-06T10:50:59.993Z,24.6429
2022-09-06T10:52:00.040Z,24.6429
2022-09-06T10:53:00.085Z,24.6429
2022-09-06T10:54:00.132Z,24.6429
2022-09-06T10:55:00.192Z,24.6429
2022-09-06T10:56:01.618Z,24.7143
2022-09-06T10:57:00.245Z,24.7143
2022-09-06T11:00:00.397Z,24.7143
2022-09-06T11:01:00.443Z,24.7143
2022-09-06T11:02:00.555Z,24.7143
2022-09-06T11:04:04.475Z,24.7143
2022-09-06T11:06:00.651Z,24.7857
2022-09-06T11:07:00.701Z,24.7857
2022-09-06T11:09:01.030Z,24.7857
2022-09-06T11:10:00.844Z,24.8571
2022-09-06T11:11:00.894Z,24.8571
2022-09-06T11:12:00.944Z,24.8571
2022-09-06T11:13:00.986Z,24.9286
2022-09-06T11:14:05.410Z,24.9286
2022-09-06T11:15:01.078Z,24.9286
2022-09-06T11:16:01.172Z,24.9286
2022-09-06T11:17:01.167Z,25
2022-09-06T11:18:01.209Z,25
2022-09-06T11:19:01.247Z,25
2022-09-06T11:20:01.289Z,25
2022-09-06T11:21:01.342Z,25
2022-09-06T11:22:01.380Z,25
2022-09-06T11:23:01.448Z,25
2022-09-06T11:24:01.471Z,25
2022-09-06T11:25:01.547Z,25
2022-09-06T11:26:01.563Z,25
2022-09-06T11:27:01.606Z,25
2022-09-06T11:28:01.665Z,25.0714
2022-09-06T11:29:01.689Z,25.0714
2022-09-06T11:30:01.772Z,25.0714
2022-09-06T11:31:01.856Z,25.0714
2022-09-06T11:32:17.886Z,25.0714
2022-09-06T11:33:01.873Z,25.0714
2022-09-06T11:34:01.916Z,25.0714
2022-09-06T11:35:01.967Z,25.0714
2022-09-06T11:36:02.021Z,25.0714
2022-09-06T11:37:02.052Z,25.0714
2022-09-06T11:38:02.094Z,25.0714
2022-09-06T11:39:02.147Z,25.0714
2022-09-06T11:40:30.456Z,25.0714
2022-09-06T11:41:02.245Z,25.0714
2022-09-06T11:42:02.290Z,25.1429
2022-09-06T11:43:02.341Z,25.1429
2022-09-06T11:44:02.385Z,25.1429
2022-09-06T11:45:02.448Z,25.1429
2022-09-06T11:46:02.535Z,25.1429
2022-09-06T11:47:02.519Z,25.1429
2022-09-06T11:48:02.561Z,25.2143
2022-09-06T11:49:02.607Z,25.2143
2022-09-06T11:50:02.672Z,25.2143
2022-09-06T11:51:02.694Z,25.2857
2022-09-06T11:52:02.742Z,25.2857
2022-09-06T11:53:02.789Z,25.2857
2022-09-06T11:54:02.830Z,25.2857
2022-09-06T11:55:02.892Z,25.2857
2022-09-06T11:56:02.915Z,25.3571
2022-09-06T11:57:02.958Z,25.3571
2022-09-06T11:58:03.001Z,25.3571
2022-09-06T11:59:03.061Z,25.3571
2022-09-06T12:00:03.102Z,25.4286
2022-09-06T12:01:03.140Z,25.4286
2022-09-06T12:02:03.187Z,25.4286
2022-09-06T12:05:03.358Z,25.5
2022-09-06T12:06:03.369Z,25.5
2022-09-06T12:07:03.413Z,25.5
2022-09-06T12:08:03.455Z,25.5
2022-09-06T12:09:03.506Z,25.5714
2022-09-06T12:10:03.574Z,25.5714
2022-09-06T12:11:03.595Z,25.5714
2022-09-06T12:12:03.644Z,25.6429
2022-09-06T12:13:03.686Z,25.6429
2022-09-06T12:14:03.733Z,25.6429
2022-09-06T12:15:03.803Z,25.7143
2022-09-06T12:16:03.874Z,25.7143
2022-09-06T12:17:03.867Z,25.7143
2022-09-06T12:18:03.916Z,25.7143
2022-09-06T12:19:03.982Z,25.7143
2022-09-06T12:20:04.004Z,25.7143
2022-09-06T12:21:04.046Z,25.7857
2022-09-06T12:22:04.120Z,25.7857
2022-09-06T12:23:04.141Z,25.7857
2022-09-06T12:24:04.189Z,25.7857
2022-09-06T12:25:04.225Z,25.7857
2022-09-06T12:26:04.274Z,25.7857
2022-09-06T12:27:04.346Z,25.7857
2022-09-06T12:28:04.355Z,25.8571
2022-09-06T12:29:04.408Z,25.8571
2022-09-06T12:30:04.580Z,25.8571
2022-09-06T12:31:04.542Z,25.9286
2022-09-06T12:32:04.562Z,25.9286
2022-09-06T12:33:04.584Z,25.9286
2022-09-06T12:34:04.620Z,26
2022-09-06T12:36:07.719Z,26
2022-09-06T12:37:04.798Z,26.0714
2022-09-06T12:38:04.801Z,26.0714